sensor_id;sensor_type;location;lat;lon;timestamp;temperature;humidity
5009;DHT22;2523;51.058;6.922;2022-08-16T00:01:57;21.30;99.90
5009;DHT22;2523;51.058;6.922;2022-08-16T00:04:22;21.40;99.90
5009;DHT22;2523;51.058;6.922;2022-08-16T00:06:48;21.30;99.90
5009;DHT22;2523;51.058;6.922;2022-08-16T00:09:13;21.30;99.90
5009;DHT22;2523;51.058;6.922;2022-08-16T00:11:41;21.20;99.90
5009;DHT22;2523;51.058;6.922;2022-08-16T00:14:11;21.20;99.90
5009;DHT22;2523;51.058;6.922;2022-08-16T00:16:36;21.30;99.90
5009;DHT22;2523;51.058;6.922;2022-08-16T00:19:03;21.20;99.90
5009;DHT22;2523;51.058;6.922;2022-08-16T00:21:29;21.20;99.90
5009;DHT22;2523;51.058;6.922;2022-08-16T00:23:54;21.20;99.90
5009;DHT22;2523;51.058;6.922;2022-08-16T00:26:20;21.10;99.90
5009;DHT22;2523;51.058;6.922;2022-08-16T00:28:45;21.10;99.90
5009;DHT22;2523;51.058;6.922;2022-08-16T00:31:11;21.10;99.90
5009;DHT22;2523;51.058;6.922;2022-08-16T00:33:36;21.10;99.90
5009;DHT22;2523;51.058;6.922;2022-08-16T00:36:02;21.00;99.90
5009;DHT22;2523;51.058;6.922;2022-08-16T00:38:28;21.00;99.90
5009;DHT22;2523;51.058;6.922;2022-08-16T00:40:54;21.00;99.90
5009;DHT22;2523;51.058;6.922;2022-08-16T00:43:23;21.00;99.90
5009;DHT22;2523;51.058;6.922;2022-08-16T00:46:00;21.00;99.90
5009;DHT22;2523;51.058;6.922;2022-08-16T00:48:29;21.00;99.90
5009;DHT22;2523;51.058;6.922;2022-08-16T00:50:55;20.90;99.90
5009;DHT22;2523;51.058;6.922;2022-08-16T00:53:20;20.90;99.90
5009;DHT22;2523;51.058;6.922;2022-08-16T00:55:52;20.90;99.90
5009;DHT22;2523;51.058;6.922;2022-08-16T00:58:20;20.90;99.90
5009;DHT22;2523;51.058;6.922;2022-08-16T01:00:47;20.90;99.90
5009;DHT22;2523;51.058;6.922;2022-08-16T01:03:16;20.90;99.90
5009;DHT22;2523;51.058;6.922;2022-08-16T01:05:43;20.90;99.90
5009;DHT22;2523;51.058;6.922;2022-08-16T01:08:10;20.80;99.90
5009;DHT22;2523;51.058;6.922;2022-08-16T01:10:37;20.80;99.90
5009;DHT22;2523;51.058;6.922;2022-08-16T01:13:17;20.80;99.90
5009;DHT22;2523;51.058;6.922;2022-08-16T01:15:50;20.90;99.90
5009;DHT22;2523;51.058;6.922;2022-08-16T01:18:19;20.90;99.90
5009;DHT22;2523;51.058;6.922;2022-08-16T01:20:51;20.80;99.90
5009;DHT22;2523;51.058;6.922;2022-08-16T01:26:19;20.80;99.90
5009;DHT22;2523;51.058;6.922;2022-08-16T01:28:46;20.70;99.90
5009;DHT22;2523;51.058;6.922;2022-08-16T01:31:13;20.70;99.90
5009;DHT22;2523;51.058;6.922;2022-08-16T01:33:39;20.70;99.90
5009;DHT22;2523;51.058;6.922;2022-08-16T01:36:08;20.60;99.90
5009;DHT22;2523;51.058;6.922;2022-08-16T01:38:37;20.50;99.90
5009;DHT22;2523;51.058;6.922;2022-08-16T01:43:31;20.50;99.90
5009;DHT22;2523;51.058;6.922;2022-08-16T01:45:59;20.50;99.90
5009;DHT22;2523;51.058;6.922;2022-08-16T01:48:29;20.50;99.90
5009;DHT22;2523;51.058;6.922;2022-08-16T01:50:56;20.50;99.90
5009;DHT22;2523;51.058;6.922;2022-08-16T01:53:22;20.50;99.90
5009;DHT22;2523;51.058;6.922;2022-08-16T01:55:48;20.40;99.90
5009;DHT22;2523;51.058;6.922;2022-08-16T01:58:15;20.40;99.90
5009;DHT22;2523;51.058;6.922;2022-08-16T02:00:42;20.40;99.90
5009;DHT22;2523;51.058;6.922;2022-08-16T02:03:07;20.30;99.90
5009;DHT22;2523;51.058;6.922;2022-08-16T02:05:33;20.30;99.90
5009;DHT22;2523;51.058;6.922;2022-08-16T02:07:58;20.30;99.90
5009;DHT22;2523;51.058;6.922;2022-08-16T02:10:24;20.30;99.90
5009;DHT22;2523;51.058;6.922;2022-08-16T02:12:50;20.30;99.90
5009;DHT22;2523;51.058;6.922;2022-08-16T02:15:19;20.20;99.90
5009;DHT22;2523;51.058;6.922;2022-08-16T02:17:44;20.20;99.90
5009;DHT22;2523;51.058;6.922;2022-08-16T02:20:10;20.20;99.90
5009;DHT22;2523;51.058;6.922;2022-08-16T02:22:36;20.30;99.90
5009;DHT22;2523;51.058;6.922;2022-08-16T02:25:09;20.30;99.90
5009;DHT22;2523;51.058;6.922;2022-08-16T02:27:35;20.30;99.90
5009;DHT22;2523;51.058;6.922;2022-08-16T02:30:00;20.30;99.90
5009;DHT22;2523;51.058;6.922;2022-08-16T02:32:26;20.30;99.90
5009;DHT22;2523;51.058;6.922;2022-08-16T02:34:51;20.20;99.90
5009;DHT22;2523;51.058;6.922;2022-08-16T02:37:17;20.10;99.90
5009;DHT22;2523;51.058;6.922;2022-08-16T02:39:42;20.20;99.90
5009;DHT22;2523;51.058;6.922;2022-08-16T02:42:08;20.10;99.90
5009;DHT22;2523;51.058;6.922;2022-08-16T02:44:34;20.10;99.90
5009;DHT22;2523;51.058;6.922;2022-08-16T02:46:59;20.10;99.90
5009;DHT22;2523;51.058;6.922;2022-08-16T02:49:25;20.10;99.90
5009;DHT22;2523;51.058;6.922;2022-08-16T02:51:51;20.10;99.90
5009;DHT22;2523;51.058;6.922;2022-08-16T02:54:16;20.00;99.90
5009;DHT22;2523;51.058;6.922;2022-08-16T02:56:42;20.00;99.90
5009;DHT22;2523;51.058;6.922;2022-08-16T02:59:08;20.00;99.90
5009;DHT22;2523;51.058;6.922;2022-08-16T03:01:34;20.00;99.90
5009;DHT22;2523;51.058;6.922;2022-08-16T03:04:02;19.90;99.90
5009;DHT22;2523;51.058;6.922;2022-08-16T03:06:28;20.00;99.90
5009;DHT22;2523;51.058;6.922;2022-08-16T03:08:54;20.00;99.90
5009;DHT22;2523;51.058;6.922;2022-08-16T03:11:20;20.00;99.90
5009;DHT22;2523;51.058;6.922;2022-08-16T03:13:49;20.00;99.90
5009;DHT22;2523;51.058;6.922;2022-08-16T03:16:15;20.10;99.90
5009;DHT22;2523;51.058;6.922;2022-08-16T03:18:41;20.10;99.90
5009;DHT22;2523;51.058;6.922;2022-08-16T03:21:07;20.00;99.90
5009;DHT22;2523;51.058;6.922;2022-08-16T03:23:34;20.00;99.90
5009;DHT22;2523;51.058;6.922;2022-08-16T03:25:59;20.00;99.90
5009;DHT22;2523;51.058;6.922;2022-08-16T03:28:25;20.00;99.90
5009;DHT22;2523;51.058;6.922;2022-08-16T03:30:51;19.90;99.90
5009;DHT22;2523;51.058;6.922;2022-08-16T03:33:16;19.90;99.90
5009;DHT22;2523;51.058;6.922;2022-08-16T03:35:43;20.00;99.90
5009;DHT22;2523;51.058;6.922;2022-08-16T03:38:10;20.00;99.90
5009;DHT22;2523;51.058;6.922;2022-08-16T03:40:37;20.00;99.90
5009;DHT22;2523;51.058;6.922;2022-08-16T03:43:06;20.10;99.90
5009;DHT22;2523;51.058;6.922;2022-08-16T03:45:33;20.10;99.90
5009;DHT22;2523;51.058;6.922;2022-08-16T03:47:59;20.00;99.90
5009;DHT22;2523;51.058;6.922;2022-08-16T03:50:27;20.00;99.90
5009;DHT22;2523;51.058;6.922;2022-08-16T03:52:52;19.80;99.90
5009;DHT22;2523;51.058;6.922;2022-08-16T03:55:18;19.80;99.90
5009;DHT22;2523;51.058;6.922;2022-08-16T03:57:43;19.80;99.90
5009;DHT22;2523;51.058;6.922;2022-08-16T04:00:17;19.70;99.90
5009;DHT22;2523;51.058;6.922;2022-08-16T04:02:44;19.70;99.90
5009;DHT22;2523;51.058;6.922;2022-08-16T04:05:12;19.70;99.90
5009;DHT22;2523;51.058;6.922;2022-08-16T04:07:38;19.70;99.90
5009;DHT22;2523;51.058;6.922;2022-08-16T04:10:05;19.70;99.90
5009;DHT22;2523;51.058;6.922;2022-08-16T04:12:32;19.70;99.90
5009;DHT22;2523;51.058;6.922;2022-08-16T04:14:59;19.60;99.90
5009;DHT22;2523;51.058;6.922;2022-08-16T04:17:26;19.60;99.90
5009;DHT22;2523;51.058;6.922;2022-08-16T04:19:52;19.60;99.90
5009;DHT22;2523;51.058;6.922;2022-08-16T04:22:17;19.60;99.90
5009;DHT22;2523;51.058;6.922;2022-08-16T04:24:44;19.60;99.90
5009;DHT22;2523;51.058;6.922;2022-08-16T04:27:10;19.70;99.90
5009;DHT22;2523;51.058;6.922;2022-08-16T04:29:35;19.70;99.90
5009;DHT22;2523;51.058;6.922;2022-08-16T04:32:01;19.70;99.90
5009;DHT22;2523;51.058;6.922;2022-08-16T04:34:30;19.60;99.90
5009;DHT22;2523;51.058;6.922;2022-08-16T04:36:57;19.60;99.90
5009;DHT22;2523;51.058;6.922;2022-08-16T04:39:24;19.60;99.90
5009;DHT22;2523;51.058;6.922;2022-08-16T04:41:50;19.70;99.90
5009;DHT22;2523;51.058;6.922;2022-08-16T04:44:16;19.70;99.90
5009;DHT22;2523;51.058;6.922;2022-08-16T04:46:42;19.70;99.90
5009;DHT22;2523;51.058;6.922;2022-08-16T04:49:08;19.70;99.90
5009;DHT22;2523;51.058;6.922;2022-08-16T04:51:34;19.70;99.90
5009;DHT22;2523;51.058;6.922;2022-08-16T04:53:59;19.70;99.90
5009;DHT22;2523;51.058;6.922;2022-08-16T04:56:25;19.70;99.90
5009;DHT22;2523;51.058;6.922;2022-08-16T04:58:50;19.70;99.90
5009;DHT22;2523;51.058;6.922;2022-08-16T05:01:17;19.70;99.90
5009;DHT22;2523;51.058;6.922;2022-08-16T05:03:43;19.70;99.90
5009;DHT22;2523;51.058;6.922;2022-08-16T05:06:09;19.70;99.90
5009;DHT22;2523;51.058;6.922;2022-08-16T05:08:35;19.70;99.90
5009;DHT22;2523;51.058;6.922;2022-08-16T05:11:02;19.70;99.90
5009;DHT22;2523;51.058;6.922;2022-08-16T05:13:29;19.80;99.90
5009;DHT22;2523;51.058;6.922;2022-08-16T05:15:55;19.80;99.90
5009;DHT22;2523;51.058;6.922;2022-08-16T05:18:20;19.80;99.90
5009;DHT22;2523;51.058;6.922;2022-08-16T05:20:46;19.90;99.90
5009;DHT22;2523;51.058;6.922;2022-08-16T05:23:11;20.00;99.90
5009;DHT22;2523;51.058;6.922;2022-08-16T05:25:37;20.00;99.90
5009;DHT22;2523;51.058;6.922;2022-08-16T05:28:02;20.10;99.90
5009;DHT22;2523;51.058;6.922;2022-08-16T05:30:28;20.10;99.90
5009;DHT22;2523;51.058;6.922;2022-08-16T05:32:54;20.10;99.90
5009;DHT22;2523;51.058;6.922;2022-08-16T05:35:19;20.10;99.90
5009;DHT22;2523;51.058;6.922;2022-08-16T05:37:45;20.10;99.90
5009;DHT22;2523;51.058;6.922;2022-08-16T05:40:12;20.20;99.90
5009;DHT22;2523;51.058;6.922;2022-08-16T05:42:38;20.30;99.90
5009;DHT22;2523;51.058;6.922;2022-08-16T05:45:05;20.40;99.90
5009;DHT22;2523;51.058;6.922;2022-08-16T05:47:31;20.40;99.90
5009;DHT22;2523;51.058;6.922;2022-08-16T05:49:56;20.50;99.90
5009;DHT22;2523;51.058;6.922;2022-08-16T05:52:22;20.50;99.90
5009;DHT22;2523;51.058;6.922;2022-08-16T05:54:47;20.50;99.90
5009;DHT22;2523;51.058;6.922;2022-08-16T05:57:17;20.60;99.90
5009;DHT22;2523;51.058;6.922;2022-08-16T05:59:43;20.60;99.90
5009;DHT22;2523;51.058;6.922;2022-08-16T06:02:11;20.70;99.90
5009;DHT22;2523;51.058;6.922;2022-08-16T06:04:37;20.70;99.90
5009;DHT22;2523;51.058;6.922;2022-08-16T06:07:04;20.70;99.90
5009;DHT22;2523;51.058;6.922;2022-08-16T06:09:32;20.70;99.90
5009;DHT22;2523;51.058;6.922;2022-08-16T06:11:57;20.70;99.90
5009;DHT22;2523;51.058;6.922;2022-08-16T06:14:26;20.60;99.90
5009;DHT22;2523;51.058;6.922;2022-08-16T06:16:52;20.60;99.90
5009;DHT22;2523;51.058;6.922;2022-08-16T06:19:18;20.60;99.90
5009;DHT22;2523;51.058;6.922;2022-08-16T06:21:45;20.70;99.90
5009;DHT22;2523;51.058;6.922;2022-08-16T06:24:11;20.80;99.90
5009;DHT22;2523;51.058;6.922;2022-08-16T06:26:37;20.80;99.90
5009;DHT22;2523;51.058;6.922;2022-08-16T06:29:03;20.90;99.90
5009;DHT22;2523;51.058;6.922;2022-08-16T06:31:28;20.90;99.90
5009;DHT22;2523;51.058;6.922;2022-08-16T06:33:54;21.00;99.90
5009;DHT22;2523;51.058;6.922;2022-08-16T06:36:19;21.10;99.90
5009;DHT22;2523;51.058;6.922;2022-08-16T06:38:45;21.20;99.90
5009;DHT22;2523;51.058;6.922;2022-08-16T06:41:11;21.30;99.90
5009;DHT22;2523;51.058;6.922;2022-08-16T06:43:38;21.30;99.90
5009;DHT22;2523;51.058;6.922;2022-08-16T06:46:07;21.40;99.90
5009;DHT22;2523;51.058;6.922;2022-08-16T06:48:35;21.50;99.90
5009;DHT22;2523;51.058;6.922;2022-08-16T06:51:04;21.60;99.90
5009;DHT22;2523;51.058;6.922;2022-08-16T06:53:32;21.60;99.90
5009;DHT22;2523;51.058;6.922;2022-08-16T06:55:59;21.60;99.90
5009;DHT22;2523;51.058;6.922;2022-08-16T06:58:25;21.70;99.90
5009;DHT22;2523;51.058;6.922;2022-08-16T07:00:50;21.70;99.90
5009;DHT22;2523;51.058;6.922;2022-08-16T07:03:16;21.80;99.90
5009;DHT22;2523;51.058;6.922;2022-08-16T07:05:42;21.80;99.90
5009;DHT22;2523;51.058;6.922;2022-08-16T07:08:08;21.90;99.90
5009;DHT22;2523;51.058;6.922;2022-08-16T07:10:35;21.90;99.90
5009;DHT22;2523;51.058;6.922;2022-08-16T07:13:01;22.00;99.90
5009;DHT22;2523;51.058;6.922;2022-08-16T07:15:27;22.00;99.90
5009;DHT22;2523;51.058;6.922;2022-08-16T07:17:52;22.10;99.90
5009;DHT22;2523;51.058;6.922;2022-08-16T07:20:18;22.10;99.90
5009;DHT22;2523;51.058;6.922;2022-08-16T07:22:47;22.30;99.90
5009;DHT22;2523;51.058;6.922;2022-08-16T07:25:14;22.30;99.90
5009;DHT22;2523;51.058;6.922;2022-08-16T07:27:39;22.30;99.90
5009;DHT22;2523;51.058;6.922;2022-08-16T07:30:07;22.40;99.90
5009;DHT22;2523;51.058;6.922;2022-08-16T07:32:33;22.40;99.90
5009;DHT22;2523;51.058;6.922;2022-08-16T07:34:59;22.40;99.90
5009;DHT22;2523;51.058;6.922;2022-08-16T07:37:25;22.50;99.90
5009;DHT22;2523;51.058;6.922;2022-08-16T07:39:50;22.60;99.90
5009;DHT22;2523;51.058;6.922;2022-08-16T07:42:16;22.70;99.90
5009;DHT22;2523;51.058;6.922;2022-08-16T07:44:42;22.80;99.90
5009;DHT22;2523;51.058;6.922;2022-08-16T07:47:07;22.90;99.90
5009;DHT22;2523;51.058;6.922;2022-08-16T07:49:33;23.00;99.90
5009;DHT22;2523;51.058;6.922;2022-08-16T07:51:58;23.00;99.90
5009;DHT22;2523;51.058;6.922;2022-08-16T07:54:24;23.10;99.90
5009;DHT22;2523;51.058;6.922;2022-08-16T07:56:50;23.20;99.90
5009;DHT22;2523;51.058;6.922;2022-08-16T07:59:16;23.30;99.90
5009;DHT22;2523;51.058;6.922;2022-08-16T08:01:41;23.40;99.90
5009;DHT22;2523;51.058;6.922;2022-08-16T08:04:07;23.50;99.90
5009;DHT22;2523;51.058;6.922;2022-08-16T08:06:37;23.50;99.90
5009;DHT22;2523;51.058;6.922;2022-08-16T08:09:03;23.50;99.90
5009;DHT22;2523;51.058;6.922;2022-08-16T08:11:29;23.60;99.90
5009;DHT22;2523;51.058;6.922;2022-08-16T08:13:57;23.70;99.90
5009;DHT22;2523;51.058;6.922;2022-08-16T08:16:26;23.70;99.90
5009;DHT22;2523;51.058;6.922;2022-08-16T08:18:52;23.80;99.90
5009;DHT22;2523;51.058;6.922;2022-08-16T08:21:20;23.80;99.90
5009;DHT22;2523;51.058;6.922;2022-08-16T08:23:46;24.00;99.90
5009;DHT22;2523;51.058;6.922;2022-08-16T08:26:12;24.10;99.90
5009;DHT22;2523;51.058;6.922;2022-08-16T08:28:38;24.20;99.90
5009;DHT22;2523;51.058;6.922;2022-08-16T08:31:04;24.20;99.90
5009;DHT22;2523;51.058;6.922;2022-08-16T08:33:30;24.30;99.90
5009;DHT22;2523;51.058;6.922;2022-08-16T08:36:01;24.40;99.90
5009;DHT22;2523;51.058;6.922;2022-08-16T08:38:28;24.50;99.90
5009;DHT22;2523;51.058;6.922;2022-08-16T08:40:55;24.60;99.90
5009;DHT22;2523;51.058;6.922;2022-08-16T08:43:20;24.70;99.90
5009;DHT22;2523;51.058;6.922;2022-08-16T08:45:47;24.80;99.90
5009;DHT22;2523;51.058;6.922;2022-08-16T08:48:12;24.90;99.90
5009;DHT22;2523;51.058;6.922;2022-08-16T08:50:38;25.00;99.90
5009;DHT22;2523;51.058;6.922;2022-08-16T08:53:07;25.10;99.90
5009;DHT22;2523;51.058;6.922;2022-08-16T08:55:33;25.20;99.90
5009;DHT22;2523;51.058;6.922;2022-08-16T08:57:59;25.40;99.90
5009;DHT22;2523;51.058;6.922;2022-08-16T09:00:25;25.50;99.90
5009;DHT22;2523;51.058;6.922;2022-08-16T09:02:52;25.50;99.90
5009;DHT22;2523;51.058;6.922;2022-08-16T09:05:19;25.50;99.90
5009;DHT22;2523;51.058;6.922;2022-08-16T09:07:45;25.60;99.90
5009;DHT22;2523;51.058;6.922;2022-08-16T09:10:10;25.80;99.90
5009;DHT22;2523;51.058;6.922;2022-08-16T09:12:38;25.80;99.90
5009;DHT22;2523;51.058;6.922;2022-08-16T09:15:05;26.00;99.90
5009;DHT22;2523;51.058;6.922;2022-08-16T09:17:32;26.20;99.90
5009;DHT22;2523;51.058;6.922;2022-08-16T09:19:57;26.30;99.90
5009;DHT22;2523;51.058;6.922;2022-08-16T09:22:25;26.50;99.90
5009;DHT22;2523;51.058;6.922;2022-08-16T09:24:51;26.50;99.90
5009;DHT22;2523;51.058;6.922;2022-08-16T09:27:17;26.50;98.10
5009;DHT22;2523;51.058;6.922;2022-08-16T09:29:43;26.50;94.70
5009;DHT22;2523;51.058;6.922;2022-08-16T09:32:09;26.70;94.20
5009;DHT22;2523;51.058;6.922;2022-08-16T09:34:34;26.80;93.50
5009;DHT22;2523;51.058;6.922;2022-08-16T09:37:00;26.80;91.70
5009;DHT22;2523;51.058;6.922;2022-08-16T09:39:27;27.10;90.60
5009;DHT22;2523;51.058;6.922;2022-08-16T09:41:53;27.20;90.30
5009;DHT22;2523;51.058;6.922;2022-08-16T09:44:22;27.20;88.90
5009;DHT22;2523;51.058;6.922;2022-08-16T09:46:51;27.40;87.90
5009;DHT22;2523;51.058;6.922;2022-08-16T09:49:17;27.40;82.10
5009;DHT22;2523;51.058;6.922;2022-08-16T09:51:43;27.40;82.80
5009;DHT22;2523;51.058;6.922;2022-08-16T09:54:08;27.60;83.60
5009;DHT22;2523;51.058;6.922;2022-08-16T09:56:40;27.70;76.10
5009;DHT22;2523;51.058;6.922;2022-08-16T09:59:08;27.80;77.30
5009;DHT22;2523;51.058;6.922;2022-08-16T10:01:36;27.90;78.80
5009;DHT22;2523;51.058;6.922;2022-08-16T10:04:03;28.10;75.20
5009;DHT22;2523;51.058;6.922;2022-08-16T10:06:30;28.20;73.40
5009;DHT22;2523;51.058;6.922;2022-08-16T10:08:55;28.20;69.50
5009;DHT22;2523;51.058;6.922;2022-08-16T10:11:21;28.20;68.00
5009;DHT22;2523;51.058;6.922;2022-08-16T10:14:05;28.30;69.80
5009;DHT22;2523;51.058;6.922;2022-08-16T10:16:31;28.50;65.70
5009;DHT22;2523;51.058;6.922;2022-08-16T10:18:58;28.50;62.70
5009;DHT22;2523;51.058;6.922;2022-08-16T10:21:23;28.50;65.00
5009;DHT22;2523;51.058;6.922;2022-08-16T10:23:50;28.60;63.30
5009;DHT22;2523;51.058;6.922;2022-08-16T10:26:19;28.60;59.70
5009;DHT22;2523;51.058;6.922;2022-08-16T10:28:45;28.50;59.50
5009;DHT22;2523;51.058;6.922;2022-08-16T10:31:11;28.60;58.30
5009;DHT22;2523;51.058;6.922;2022-08-16T10:33:38;28.70;60.40
5009;DHT22;2523;51.058;6.922;2022-08-16T10:36:05;28.80;56.70
5009;DHT22;2523;51.058;6.922;2022-08-16T10:38:34;29.00;55.90
5009;DHT22;2523;51.058;6.922;2022-08-16T10:40:59;28.80;58.20
5009;DHT22;2523;51.058;6.922;2022-08-16T10:43:25;28.80;56.30
5009;DHT22;2523;51.058;6.922;2022-08-16T10:45:51;29.00;54.80
5009;DHT22;2523;51.058;6.922;2022-08-16T10:48:17;29.10;54.30
5009;DHT22;2523;51.058;6.922;2022-08-16T10:50:43;29.20;53.60
5009;DHT22;2523;51.058;6.922;2022-08-16T10:53:10;29.10;54.00
5009;DHT22;2523;51.058;6.922;2022-08-16T10:55:41;29.20;53.40
5009;DHT22;2523;51.058;6.922;2022-08-16T10:58:10;29.40;51.30
5009;DHT22;2523;51.058;6.922;2022-08-16T11:00:37;29.70;51.50
5009;DHT22;2523;51.058;6.922;2022-08-16T11:03:04;30.10;49.50
5009;DHT22;2523;51.058;6.922;2022-08-16T11:05:32;30.40;49.50
5009;DHT22;2523;51.058;6.922;2022-08-16T11:07:59;30.70;48.30
5009;DHT22;2523;51.058;6.922;2022-08-16T11:10:33;30.80;46.30
5009;DHT22;2523;51.058;6.922;2022-08-16T11:12:59;30.70;45.80
5009;DHT22;2523;51.058;6.922;2022-08-16T11:15:26;30.90;42.30
5009;DHT22;2523;51.058;6.922;2022-08-16T11:17:53;31.00;42.30
5009;DHT22;2523;51.058;6.922;2022-08-16T11:20:19;31.20;41.70
5009;DHT22;2523;51.058;6.922;2022-08-16T11:22:46;31.10;41.20
5009;DHT22;2523;51.058;6.922;2022-08-16T11:25:15;31.20;41.60
5009;DHT22;2523;51.058;6.922;2022-08-16T11:27:41;31.20;40.90
5009;DHT22;2523;51.058;6.922;2022-08-16T11:30:08;31.30;42.60
5009;DHT22;2523;51.058;6.922;2022-08-16T11:32:34;31.40;39.90
5009;DHT22;2523;51.058;6.922;2022-08-16T11:35:02;31.80;41.20
5009;DHT22;2523;51.058;6.922;2022-08-16T11:37:28;31.80;38.60
5009;DHT22;2523;51.058;6.922;2022-08-16T11:39:53;31.90;37.90
5009;DHT22;2523;51.058;6.922;2022-08-16T11:42:19;32.00;39.80
5009;DHT22;2523;51.058;6.922;2022-08-16T11:44:45;32.00;37.60
5009;DHT22;2523;51.058;6.922;2022-08-16T11:47:10;32.00;37.10
5009;DHT22;2523;51.058;6.922;2022-08-16T11:49:36;31.90;37.50
5009;DHT22;2523;51.058;6.922;2022-08-16T11:52:01;31.40;36.10
5009;DHT22;2523;51.058;6.922;2022-08-16T11:54:27;31.20;36.90
5009;DHT22;2523;51.058;6.922;2022-08-16T11:56:52;31.10;38.70
5009;DHT22;2523;51.058;6.922;2022-08-16T11:59:18;31.30;38.30
5009;DHT22;2523;51.058;6.922;2022-08-16T12:01:44;31.40;38.30
5009;DHT22;2523;51.058;6.922;2022-08-16T12:04:11;31.40;33.80
5009;DHT22;2523;51.058;6.922;2022-08-16T12:06:37;31.70;33.40
5009;DHT22;2523;51.058;6.922;2022-08-16T12:09:03;32.00;33.60
5009;DHT22;2523;51.058;6.922;2022-08-16T12:11:30;32.10;32.60
5009;DHT22;2523;51.058;6.922;2022-08-16T12:13:56;32.30;31.70
5009;DHT22;2523;51.058;6.922;2022-08-16T12:16:22;32.70;31.40
5009;DHT22;2523;51.058;6.922;2022-08-16T12:18:48;32.70;29.60
5009;DHT22;2523;51.058;6.922;2022-08-16T12:21:15;32.70;29.80
5009;DHT22;2523;51.058;6.922;2022-08-16T12:23:40;32.90;30.20
5009;DHT22;2523;51.058;6.922;2022-08-16T12:26:06;33.10;30.30
5009;DHT22;2523;51.058;6.922;2022-08-16T12:28:31;33.30;30.00
5009;DHT22;2523;51.058;6.922;2022-08-16T12:30:57;33.40;29.50
5009;DHT22;2523;51.058;6.922;2022-08-16T12:33:23;33.50;29.10
5009;DHT22;2523;51.058;6.922;2022-08-16T12:35:48;33.20;29.20
5009;DHT22;2523;51.058;6.922;2022-08-16T12:38:15;33.00;29.00
5009;DHT22;2523;51.058;6.922;2022-08-16T12:40:43;32.70;29.50
5009;DHT22;2523;51.058;6.922;2022-08-16T12:43:11;32.20;30.80
5009;DHT22;2523;51.058;6.922;2022-08-16T12:45:45;31.60;31.80
5009;DHT22;2523;51.058;6.922;2022-08-16T12:48:13;31.50;31.90
5009;DHT22;2523;51.058;6.922;2022-08-16T12:50:58;31.20;32.70
5009;DHT22;2523;51.058;6.922;2022-08-16T12:53:24;31.10;32.20
5009;DHT22;2523;51.058;6.922;2022-08-16T12:55:50;31.10;31.50
5009;DHT22;2523;51.058;6.922;2022-08-16T12:58:16;31.20;30.90
5009;DHT22;2523;51.058;6.922;2022-08-16T13:00:42;31.20;31.40
5009;DHT22;2523;51.058;6.922;2022-08-16T13:03:08;31.50;31.90
5009;DHT22;2523;51.058;6.922;2022-08-16T13:05:35;32.00;30.10
5009;DHT22;2523;51.058;6.922;2022-08-16T13:08:06;32.20;30.60
5009;DHT22;2523;51.058;6.922;2022-08-16T13:10:32;32.40;29.10
5009;DHT22;2523;51.058;6.922;2022-08-16T13:12:58;32.70;30.20
5009;DHT22;2523;51.058;6.922;2022-08-16T13:15:27;32.70;30.50
5009;DHT22;2523;51.058;6.922;2022-08-16T13:17:53;32.80;30.50
5009;DHT22;2523;51.058;6.922;2022-08-16T13:20:21;32.80;29.00
5009;DHT22;2523;51.058;6.922;2022-08-16T13:22:57;32.40;29.20
5009;DHT22;2523;51.058;6.922;2022-08-16T13:25:24;32.60;29.60
5009;DHT22;2523;51.058;6.922;2022-08-16T13:27:52;32.70;28.70
5009;DHT22;2523;51.058;6.922;2022-08-16T13:30:17;32.80;28.80
5009;DHT22;2523;51.058;6.922;2022-08-16T13:32:43;33.10;29.00
5009;DHT22;2523;51.058;6.922;2022-08-16T13:35:09;33.50;28.40
5009;DHT22;2523;51.058;6.922;2022-08-16T13:37:35;33.60;27.20
5009;DHT22;2523;51.058;6.922;2022-08-16T13:40:01;33.40;27.10
5009;DHT22;2523;51.058;6.922;2022-08-16T13:42:28;32.90;26.90
5009;DHT22;2523;51.058;6.922;2022-08-16T13:44:53;33.10;27.30
5009;DHT22;2523;51.058;6.922;2022-08-16T13:47:19;33.40;26.00
5009;DHT22;2523;51.058;6.922;2022-08-16T13:49:44;33.40;25.90
5009;DHT22;2523;51.058;6.922;2022-08-16T13:52:11;33.30;25.00
5009;DHT22;2523;51.058;6.922;2022-08-16T13:54:39;33.20;25.50
5009;DHT22;2523;51.058;6.922;2022-08-16T13:57:05;33.10;26.60
5009;DHT22;2523;51.058;6.922;2022-08-16T13:59:31;32.90;27.20
5009;DHT22;2523;51.058;6.922;2022-08-16T14:01:57;32.50;28.20
5009;DHT22;2523;51.058;6.922;2022-08-16T14:04:28;32.60;26.70
5009;DHT22;2523;51.058;6.922;2022-08-16T14:06:56;32.80;26.40
5009;DHT22;2523;51.058;6.922;2022-08-16T14:09:21;33.00;25.60
5009;DHT22;2523;51.058;6.922;2022-08-16T14:11:47;32.80;24.50
5009;DHT22;2523;51.058;6.922;2022-08-16T14:14:13;32.60;25.70
5009;DHT22;2523;51.058;6.922;2022-08-16T14:16:39;32.50;26.40
5009;DHT22;2523;51.058;6.922;2022-08-16T14:19:04;32.50;26.30
5009;DHT22;2523;51.058;6.922;2022-08-16T14:21:32;32.50;26.60
5009;DHT22;2523;51.058;6.922;2022-08-16T14:23:58;32.30;25.30
5009;DHT22;2523;51.058;6.922;2022-08-16T14:26:24;32.20;25.80
5009;DHT22;2523;51.058;6.922;2022-08-16T14:28:50;31.90;27.00
5009;DHT22;2523;51.058;6.922;2022-08-16T14:31:17;31.60;27.60
5009;DHT22;2523;51.058;6.922;2022-08-16T14:33:43;31.30;27.70
5009;DHT22;2523;51.058;6.922;2022-08-16T14:36:09;31.10;27.30
5009;DHT22;2523;51.058;6.922;2022-08-16T14:38:34;31.20;27.10
5009;DHT22;2523;51.058;6.922;2022-08-16T14:41:00;31.00;27.50
5009;DHT22;2523;51.058;6.922;2022-08-16T14:43:25;31.10;27.30
5009;DHT22;2523;51.058;6.922;2022-08-16T14:45:51;31.20;27.00
5009;DHT22;2523;51.058;6.922;2022-08-16T14:48:17;31.30;27.90
5009;DHT22;2523;51.058;6.922;2022-08-16T14:50:43;31.40;26.80
5009;DHT22;2523;51.058;6.922;2022-08-16T14:53:09;31.40;27.00
5009;DHT22;2523;51.058;6.922;2022-08-16T14:55:36;31.40;27.00
5009;DHT22;2523;51.058;6.922;2022-08-16T14:58:02;31.40;26.60
5009;DHT22;2523;51.058;6.922;2022-08-16T15:00:29;31.20;26.80
5009;DHT22;2523;51.058;6.922;2022-08-16T15:02:57;31.10;26.70
5009;DHT22;2523;51.058;6.922;2022-08-16T15:05:26;31.00;27.30
5009;DHT22;2523;51.058;6.922;2022-08-16T15:07:53;30.90;28.70
5009;DHT22;2523;51.058;6.922;2022-08-16T15:10:20;30.80;28.20
5009;DHT22;2523;51.058;6.922;2022-08-16T15:12:47;30.70;29.20
5009;DHT22;2523;51.058;6.922;2022-08-16T15:15:15;30.50;30.10
5009;DHT22;2523;51.058;6.922;2022-08-16T15:17:43;30.30;30.10
5009;DHT22;2523;51.058;6.922;2022-08-16T15:20:10;30.30;29.00
5009;DHT22;2523;51.058;6.922;2022-08-16T15:22:42;30.30;29.30
5009;DHT22;2523;51.058;6.922;2022-08-16T15:25:12;30.20;29.50
5009;DHT22;2523;51.058;6.922;2022-08-16T15:27:38;30.10;30.00
5009;DHT22;2523;51.058;6.922;2022-08-16T15:30:08;30.00;31.20
5009;DHT22;2523;51.058;6.922;2022-08-16T15:32:34;29.90;31.60
5009;DHT22;2523;51.058;6.922;2022-08-16T15:35:00;29.80;31.20
5009;DHT22;2523;51.058;6.922;2022-08-16T15:37:26;29.80;33.30
5009;DHT22;2523;51.058;6.922;2022-08-16T15:39:51;29.70;34.30
5009;DHT22;2523;51.058;6.922;2022-08-16T15:42:17;29.60;34.20
5009;DHT22;2523;51.058;6.922;2022-08-16T15:44:43;29.60;35.50
5009;DHT22;2523;51.058;6.922;2022-08-16T15:47:12;29.60;35.30
5009;DHT22;2523;51.058;6.922;2022-08-16T15:49:40;29.60;35.20
5009;DHT22;2523;51.058;6.922;2022-08-16T15:52:16;29.50;35.50
5009;DHT22;2523;51.058;6.922;2022-08-16T15:54:43;29.40;37.30
5009;DHT22;2523;51.058;6.922;2022-08-16T15:57:08;29.30;36.60
5009;DHT22;2523;51.058;6.922;2022-08-16T15:59:35;29.30;36.90
5009;DHT22;2523;51.058;6.922;2022-08-16T16:02:01;29.20;36.50
5009;DHT22;2523;51.058;6.922;2022-08-16T16:04:27;29.20;37.70